Latest Weather Observations for Learmonth

IDW60801

Issued at 7:35 pm WST Thursday 27 November 2014 (issued every 30 minutes, with the page automatically refreshed every 10 minutes)

About weather observations | Map of weather stations | Latest weather observations for WA | Other Formats
Station Details ID: 005007 Name: LEARMONTH AIRPORT Lat: -22.24 Lon: 114.10 Height: 5.0 m
Data from the previous 72 hours. | See also: Recent months at Learmonth
Date/Time
WST
Temp
°C
App
Temp
°C
Dew
Point
Rel
Hum
%
Delta-T
°C
Wind Press
QNH
hPa
Press
MSL
hPa
Rain
since 9 am
mm
Dir
 
Spd
km/h
Gust
km/h
Spd
kts
Gust
kts
27/07:30pm 24.1 22.5 16.0 60 4.9 W 19 24 10 13 1011.4 - 0.0
27/07:00pm 24.5 22.6 15.8 58 5.3 W 20 28 11 15 1011.0 - 0.0
27/06:30pm 25.4 23.0 15.3 53 6.1 W 22 30 12 16 1010.4 - 0.0
27/06:00pm 26.6 23.9 14.6 47 7.2 WSW 22 28 12 15 1010.1 1010.0 0.0
27/05:30pm 27.9 25.1 14.4 43 8.1 W 22 32 12 17 1009.8 - 0.0
27/05:00pm 28.3 25.8 14.1 41 8.5 W 20 28 11 15 1009.7 - 0.0
27/04:30pm 28.7 26.4 14.0 40 8.8 W 19 26 10 14 1009.7 - 0.0
27/04:00pm 28.8 25.5 14.0 40 8.9 W 24 30 13 16 1009.7 - 0.0
27/03:30pm 30.2 28.1 14.6 38 9.5 W 19 30 10 16 1009.9 - 0.0
27/03:00pm 30.5 27.6 13.9 36 10.0 W 22 33 12 18 1009.7 1009.6 0.0
27/02:30pm 31.1 27.0 12.8 32 10.9 W 26 37 14 20 1009.4 - 0.0
27/02:00pm 28.3 27.2 17.7 52 6.7 NNE 20 30 11 16 1009.4 - 0.0
27/01:30pm 27.9 26.0 17.6 53 6.5 NNE 24 28 13 15 1009.7 - 0.0
27/01:00pm 27.4 25.1 17.6 55 6.2 NNE 26 32 14 17 1010.0 - 0.0
27/12:30pm 28.3 25.8 17.2 51 7.0 NNE 26 32 14 17 1010.0 - 0.0
27/12:00pm 27.0 24.8 16.9 54 6.3 NE 24 30 13 16 1010.1 1010.0 0.0
27/11:30am 27.2 25.8 16.9 53 6.4 NE 20 28 11 15 1010.2 - 0.0
27/11:00am 28.1 26.8 16.9 50 7.0 ENE 19 24 10 13 1010.1 - 0.0
27/10:30am 27.1 25.5 16.6 52 6.5 ENE 20 24 11 13 1010.3 - 0.0
27/10:00am 26.6 25.2 16.6 54 6.2 ENE 19 26 10 14 1010.6 - 0.0
27/09:30am 25.9 25.0 16.9 57 5.6 ENE 17 22 9 12 1010.6 - 0.0
27/09:00am 26.0 25.8 16.6 56 5.8 ENE 13 20 7 11 1010.8 1010.7 0.0
27/08:30am 26.3 26.9 15.8 52 6.4 NNW 7 11 4 6 1010.8 - 0.0
27/08:00am 24.8 26.0 15.9 57 5.4 WNW 4 13 2 7 1010.7 - 0.0
27/07:30am 24.0 24.9 16.5 63 4.6 SW 7 11 4 6 1010.7 - 0.0
27/07:00am 23.1 24.2 17.1 69 3.7 SW 7 11 4 6 1010.7 - 0.0
27/06:30am 21.7 22.4 17.0 74 2.9 WSW 9 11 5 6 1010.5 - 0.0
27/06:00am 19.8 20.4 16.7 82 1.9 WSW 9 11 5 6 1010.1 1010.0 0.0
27/05:30am 18.9 19.6 16.0 83 1.7 SW 7 9 4 5 1010.1 - 0.0
27/05:00am 18.8 19.5 16.1 84 1.6 SW 7 9 4 5 1010.0 - 0.0
27/04:30am 19.3 19.3 16.3 83 1.8 SW 11 15 6 8 1009.9 - 0.0
27/04:00am 18.9 18.8 16.0 83 1.7 S 11 11 6 6 1009.9 - 0.0
27/03:30am 19.5 19.2 16.5 83 1.8 SSW 13 15 7 8 1010.0 - 0.0
27/03:00am 19.5 19.9 16.3 82 1.9 S 9 11 5 6 1010.1 1010.0 0.0
27/02:30am 20.2 20.4 16.7 80 2.1 S 11 13 6 7 1010.2 - 0.0
27/02:00am 20.8 20.6 16.7 77 2.5 SSE 13 15 7 8 1010.4 - 0.0
27/01:30am 21.4 20.9 16.8 75 2.8 S 15 20 8 11 1010.2 - 0.0
27/01:00am 22.2 21.3 16.8 71 3.3 SSW 17 24 9 13 1010.0 - 0.0
27/12:30am 22.5 21.6 16.8 70 3.5 SSW 17 20 9 11 1010.1 - 0.0
27/12:00am 23.0 21.7 17.2 70 3.6 SW 20 26 11 14 1010.1 1010.0 0.0
 
Date/Time
WST
Temp
°C
App
Temp
°C
Dew
Point
Rel
Hum
%
Delta-T
°C
Wind Press
QNH
hPa
Press
MSL
hPa
Rain
since 9 am
mm
Dir
 
Spd
km/h
Gust
km/h
Spd
kts
Gust
kts
26/11:30pm 23.1 22.1 17.6 71 3.4 SW 19 28 10 15 1010.5 - 0.0
26/11:00pm 23.3 21.5 17.9 71 3.4 WSW 24 32 13 17 1010.1 - 0.0
26/10:30pm 23.4 21.3 18.1 72 3.3 WSW 26 33 14 18 1009.9 - 0.0
26/10:00pm 23.5 21.5 18.3 72 3.3 WSW 26 33 14 18 1009.6 - 0.0
26/09:30pm 23.6 22.0 18.4 72 3.3 WSW 24 35 13 19 1009.3 - 0.0
26/09:00pm 23.8 21.4 18.2 71 3.5 W 28 39 15 21 1009.0 1008.9 0.0
26/08:30pm 24.1 22.6 18.6 71 3.5 WSW 24 32 13 17 1009.0 - 0.0
26/08:00pm 24.3 22.1 18.6 70 3.6 W 28 35 15 19 1008.6 - 0.0
26/07:30pm 24.5 23.3 18.5 69 3.8 W 22 33 12 18 1008.6 - 0.0
26/07:00pm 24.8 22.5 18.5 68 4.0 W 28 35 15 19 1008.4 - 0.0
26/06:30pm 25.8 24.2 18.4 63 4.7 W 24 32 13 17 1008.0 - 0.0
26/06:00pm 26.7 24.2 18.0 59 5.5 W 28 37 15 20 1007.7 1007.6 0.0
26/05:30pm 28.6 26.4 17.9 52 6.8 W 26 35 14 19 1007.5 - 0.0
26/05:00pm 29.2 26.6 16.8 47 7.8 WNW 26 35 14 19 1007.3 - 0.0
26/04:30pm 30.0 27.2 17.4 46 8.0 W 28 39 15 21 1007.3 - 0.0
26/04:00pm 30.8 27.8 16.7 42 8.9 W 28 37 15 20 1007.3 - 0.0
26/03:30pm 32.6 30.8 15.6 36 10.6 WNW 19 26 10 14 1007.4 - 0.0
26/03:00pm 32.3 30.1 15.0 35 10.7 NNW 20 35 11 19 1007.6 1007.5 0.0
26/02:30pm 32.7 30.3 15.5 35 10.7 NW 22 37 12 20 1007.8 - 0.0
26/02:00pm 33.3 30.8 15.1 33 11.3 N 22 26 12 14 1007.9 - 0.0
26/01:30pm 33.6 31.5 15.1 33 11.5 NNW 20 33 11 18 1008.0 - 0.0
26/01:00pm 32.5 29.6 16.1 37 10.3 N 26 33 14 18 1008.1 - 0.0
26/12:30pm 31.0 28.4 17.7 45 8.5 NNE 28 37 15 20 1008.2 - 0.0
26/12:00pm 30.0 27.6 18.3 49 7.5 NNE 28 35 15 19 1008.6 1008.5 0.0
26/11:30am 29.8 27.6 18.8 51 7.1 NE 28 37 15 20 1008.9 - 0.0
26/11:00am 28.2 27.0 19.3 58 5.8 NNE 24 32 13 17 1009.2 - 0.0
26/10:30am 29.2 28.5 18.6 52 6.8 NNE 20 24 11 13 1009.5 - 0.0
26/10:00am 28.0 27.9 18.7 57 6.0 NE 17 24 9 13 1009.7 - 0.0
26/09:30am 28.1 27.8 18.2 55 6.3 NNE 17 22 9 12 1009.8 - 0.0
26/09:00am 27.9 28.1 17.6 53 6.5 N 13 19 7 10 1009.8 1009.7 0.0
26/08:30am 27.1 27.7 17.8 56 5.9 N 11 19 6 10 1010.1 - 0.0
26/08:00am 25.4 25.2 17.6 62 4.9 NNW 15 19 8 10 1010.0 - 0.0
26/07:30am 24.6 27.2 18.3 68 4.0 NNE 2 9 1 5 1010.4 - 0.0
26/07:00am 23.8 25.3 18.1 70 3.6 E 7 11 4 6 1010.6 - 0.0
26/06:30am 23.6 24.8 18.2 71 3.4 SE 9 13 5 7 1010.4 - 0.0
26/06:00am 23.3 24.2 18.4 74 3.1 SE 11 15 6 8 1010.2 1010.1 0.0
26/05:30am 23.0 23.9 18.4 75 2.9 SSE 11 13 6 7 1009.7 - 0.0
26/05:00am 23.0 24.3 18.4 75 2.9 S 9 15 5 8 1009.3 - 0.0
26/04:30am 23.0 23.9 18.4 75 2.9 SSW 11 13 6 7 1009.0 - 0.0
26/04:00am 22.9 23.0 18.3 75 2.9 SW 15 17 8 9 1008.8 - 0.0
26/03:30am 23.1 22.8 18.2 74 3.1 WSW 17 22 9 12 1008.6 - 0.0
26/03:00am 23.2 23.8 18.6 75 2.9 SW 13 19 7 10 1008.5 1008.4 0.0
26/02:30am 23.1 22.6 18.7 76 2.8 SW 19 24 10 13 1008.4 - 0.0
26/02:22am 23.1 22.7 18.8 77 2.7 WSW 19 22 10 12 1008.3 - 0.0
26/02:00am 23.0 22.6 18.9 78 2.6 WSW 19 24 10 13 1008.4 - 0.0
26/01:33am 22.8 22.5 19.2 80 2.3 WSW 19 28 10 15 1008.3 - 0.0
26/01:30am 22.8 22.5 19.2 80 2.3 WSW 19 28 10 15 1008.3 - 0.0
26/01:00am 22.7 22.3 19.4 81 2.1 WSW 20 28 11 15 1008.4 - 0.0
26/12:57am 22.7 22.2 19.2 80 2.2 WSW 20 28 11 15 1008.4 - 0.0
26/12:44am 22.8 23.4 19.4 81 2.2 SW 15 20 8 11 1008.6 - 0.0
26/12:30am 22.8 23.0 19.4 81 2.2 WSW 17 24 9 13 1008.7 - 0.0
26/12:00am 22.9 22.6 19.5 81 2.2 WSW 20 28 11 15 1008.9 1008.8 0.0
 
Date/Time
WST
Temp
°C
App
Temp
°C
Dew
Point
Rel
Hum
%
Delta-T
°C
Wind Press
QNH
hPa
Press
MSL
hPa
Rain
since 9 am
mm
Dir
 
Spd
km/h
Gust
km/h
Spd
kts
Gust
kts
25/11:30pm 23.0 22.9 19.6 81 2.2 WSW 19 24 10 13 1008.8 - 0.0
25/11:00pm 23.1 23.0 19.5 80 2.3 WSW 19 24 10 13 1008.9 - 0.0
25/10:30pm 23.2 22.5 19.6 80 2.3 WSW 22 28 12 15 1008.9 - 0.0
25/10:00pm 23.4 23.2 19.8 80 2.3 WSW 20 28 11 15 1009.0 - 0.0
25/09:30pm 23.6 22.7 19.9 80 2.4 WSW 24 33 13 18 1008.7 - 0.0
25/09:00pm 23.8 23.2 19.8 78 2.6 WSW 22 30 12 16 1008.5 1008.4 0.0
25/08:30pm 24.0 23.3 19.6 76 2.8 W 22 28 12 15 1008.4 - 0.0
25/08:00pm 24.2 22.0 19.5 75 3.0 W 30 39 16 21 1008.1 - 0.0
25/07:30pm 24.6 22.0 19.5 73 3.3 W 32 41 17 22 1007.9 - 0.0
25/07:00pm 25.2 22.2 19.1 69 3.9 W 33 41 18 22 1007.8 - 0.0
25/06:30pm 26.2 23.8 19.0 64 4.6 W 30 39 16 21 1007.3 - 0.0
25/06:00pm 27.4 24.7 18.5 58 5.7 W 30 37 16 20 1007.2 1007.1 0.0
25/05:30pm 29.8 26.3 17.5 47 7.8 W 32 37 17 20 1007.0 - 0.0
25/05:00pm 31.7 27.7 16.3 39 9.7 W 32 37 17 20 1006.8 - 0.0
25/04:30pm 33.3 30.1 15.3 34 11.2 W 26 32 14 17 1006.7 - 0.0
25/04:00pm 33.7 30.6 14.6 31 11.8 W 24 30 13 16 1006.8 - 0.0
25/03:30pm 35.0 31.7 14.9 30 12.5 W 26 32 14 17 1007.2 - 0.0
25/03:00pm 36.1 33.3 13.1 25 14.0 W 20 28 11 15 1007.4 1007.3 0.0
25/02:30pm 34.6 31.9 11.7 25 13.6 NNE 17 24 9 13 1007.5 - 0.0
25/02:00pm 34.2 31.3 12.3 26 13.1 NNE 19 24 10 13 1007.7 - 0.0
25/01:30pm 34.1 30.6 10.3 23 13.8 NNE 19 22 10 12 1008.1 - 0.0
25/01:00pm 32.9 29.2 10.1 24 13.1 NNE 20 24 11 13 1008.5 - 0.0
25/12:30pm 31.8 28.6 11.9 29 11.7 NNE 20 26 11 14 1008.8 - 0.0
25/12:00pm 30.5 27.8 13.5 35 10.2 NE 20 24 11 13 1009.1 1009.0 0.0
25/11:30am 31.7 28.0 9.4 25 12.6 NE 19 22 10 12 1009.3 - 0.0
25/11:00am 31.0 29.1 14.2 36 10.2 NE 17 20 9 11 1009.6 - 0.0
25/10:30am 30.2 29.6 18.4 49 7.6 NE 19 24 10 13 1009.9 - 0.0
25/10:00am 30.4 29.8 17.5 46 8.2 ENE 17 20 9 11 1010.0 - 0.0
25/09:30am 29.6 30.4 19.1 53 6.8 ENE 13 20 7 11 1010.2 - 0.0
25/09:00am 30.3 31.4 16.6 43 8.6 E 6 13 3 7 1010.2 1010.1 0.0
25/08:30am 29.8 29.7 13.4 36 9.8 SW 6 11 3 6 1010.3 - 0.0
25/08:00am 27.7 28.4 16.0 49 7.2 SW 7 9 4 5 1010.3 - 0.0
25/07:30am 26.0 26.3 17.0 57 5.6 SW 11 15 6 8 1010.1 - 0.0
25/07:00am 23.8 25.2 18.6 72 3.3 WSW 9 13 5 7 1010.0 - 0.0
25/06:30am 21.6 23.6 19.2 86 1.5 WSW 7 11 4 6 1009.7 - 0.0
25/06:00am 19.6 20.4 18.1 91 0.9 WSW 11 13 6 7 1009.7 1009.6 0.0
25/05:30am 18.7 19.2 17.4 92 0.8 WSW 11 13 6 7 1009.6 - 0.0
25/05:00am 18.3 18.6 17.0 92 0.8 SW 11 15 6 8 1009.6 - 0.0
25/04:30am 18.6 18.8 16.8 89 1.1 S 11 13 6 7 1009.7 - 0.0
25/04:00am 19.3 19.8 17.5 89 1.1 ESE 11 17 6 9 1009.8 - 0.0
25/03:30am 19.6 20.5 17.5 88 1.3 SSW 9 11 5 6 1009.6 - 0.0
25/03:00am 20.1 20.9 17.3 84 1.7 WSW 9 15 5 8 1009.7 1009.6 0.0
25/02:30am 19.7 20.4 17.1 85 1.6 SSW 9 11 5 6 1010.0 - 0.0
25/02:00am 20.7 21.9 17.4 81 2.0 S 7 11 4 6 1010.1 - 0.0
25/01:30am 21.6 21.9 17.9 79 2.3 SSW 13 19 7 10 1010.2 - 0.0
25/01:00am 21.9 22.2 17.9 78 2.5 SSW 13 19 7 10 1010.1 - 0.0
25/12:30am 22.2 20.5 18.0 77 2.6 WSW 24 33 13 18 1009.9 - 0.0
25/12:00am 22.2 21.3 18.2 78 2.5 SW 20 28 11 15 1010.5 1010.4 0.0
 
Date/Time
WST
Temp
°C
App
Temp
°C
Dew
Point
Rel
Hum
%
Delta-T
°C
Wind Press
QNH
hPa
Press
MSL
hPa
Rain
since 9 am
mm
Dir
 
Spd
km/h
Gust
km/h
Spd
kts
Gust
kts
24/11:30pm 22.2 21.0 18.5 79 2.3 SW 22 33 12 18 1010.7 - 0.0
24/11:00pm 22.3 21.1 18.3 78 2.5 SW 22 32 12 17 1010.9 - 0.0
24/10:30pm 22.4 21.2 18.4 78 2.5 WSW 22 28 12 15 1011.1 - 0.0
24/10:00pm 22.6 21.4 18.3 76 2.7 SW 22 30 12 16 1011.0 - 0.0
24/09:30pm 22.8 21.2 18.3 76 2.8 WSW 24 33 13 18 1011.0 - 0.0
24/09:00pm 23.0 22.1 18.2 74 3.0 WSW 20 28 11 15 1010.9 1010.8 0.0
24/08:30pm 23.2 21.6 18.3 74 3.1 WSW 24 32 13 17 1010.9 - 0.0
24/08:00pm 23.5 22.6 18.1 71 3.4 WSW 20 28 11 15 1010.7 - 0.0

Other Formats:

Comma delimited format used in spreadsheet applications
http://www.bom.gov.au/fwo/IDW60801/IDW60801.94302.axf

JavaScript Object Notation format (JSON) in row-major order
http://www.bom.gov.au/fwo/IDW60801/IDW60801.94302.json